Latest Coastal Weather Observations for Smithton

IDT60701

Issued at 6:52 am EST Sunday 25 September 2016 (issued every 10 minutes, with the page automatically refreshed every 10 minutes)

About coastal observations | Map of coastal stations | Coastal observations for TAS | Marine services | Other Formats
Station Details ID: 091292 Name: SMITHTON AERODROME Lat: -40.83 Lon: 145.08 Height: 7.5 m
Data from the previous 72 hours. | See also: Recent months at Smithton
Date/Time
EST
Temp
°C
Wind Pressure Rain since
9am
mm
Weather Cloud Vis
km
Sea
Height
m
Swell
Dir  Spd
kts
Gust
kts
hPa Trend Height
m
Period
s
Dir
25/06:30am 8.0 WSW 7 8 1005.7 - 10.0 - - - - - - -
25/06:00am 8.5 WSW 11 14 1005.4 - 10.0 - - - - - - -
25/05:30am 7.6 W 7 8 1005.1 - 9.8 - - - - - - -
25/05:00am 7.6 WSW 7 7 1004.8 - 9.8 - - - - - - -
25/04:30am 8.2 WSW 7 8 1004.6 - 9.8 - - - - - - -
25/04:00am 9.5 W 7 11 1004.2 - 9.8 - - - - - - -
25/03:30am 9.6 WSW 7 11 1003.9 - 9.8 - - - - - - -
25/03:00am 9.8 WSW 7 8 1003.7 - 9.8 - - - - - - -
25/02:30am 10.6 WSW 10 13 1003.6 - 9.8 - - - - - - -
25/02:00am 11.0 W 14 18 1003.5 - 9.8 - - - - - - -
25/01:30am 11.5 W 13 18 1003.2 - 9.8 - - - - - - -
25/01:00am 11.8 NW 12 17 1003.1 - 9.6 - - - - - - -
25/12:30am 12.4 N 12 17 1003.0 - 7.0 - - - - - - -
25/12:00am 12.5 N 10 13 1003.2 - 6.6 - - - - - - -
 
Date/Time
EST
Temp
°C
Wind Pressure Rain since
9am
mm
Weather Cloud Vis
km
Sea
Height
m
Swell
Dir  Spd
kts
Gust
kts
hPa Trend Height
m
Period
s
Dir
24/11:30pm 12.5 N 13 18 1003.6 - 5.0 - - - - - - -
24/11:00pm 12.5 N 13 19 1003.8 - 4.0 - - - - - - -
24/10:30pm 12.5 N 12 15 1004.0 - 3.0 - - - - - - -
24/10:00pm 12.7 N 11 16 1004.3 - 1.2 - - - - - - -
24/09:30pm 12.9 N 8 12 1004.3 - 0.6 - - - - - - -
24/09:00pm 13.2 N 10 14 1004.5 - 0.2 - - - - - - -
24/08:30pm 13.2 NE 13 16 1004.5 - 0.0 - - - - - - -
24/08:00pm 13.3 NE 11 15 1004.4 - 0.0 - - - - - - -
24/07:30pm 13.0 ENE 13 16 1004.3 - 0.0 - - - - - - -
24/07:00pm 13.3 ENE 11 17 1004.3 - 0.0 - - - - - - -
24/06:30pm 13.2 ENE 11 14 1004.3 - 0.0 - - - - - - -
24/06:00pm 13.5 ENE 11 15 1004.4 - 0.0 - - - - - - -
24/05:30pm 13.6 ENE 11 14 1004.6 - 0.0 - - - - - - -
24/05:00pm 13.6 ENE 11 15 1004.8 - 0.0 - - - - - - -
24/04:30pm 13.9 NE 12 15 1005.0 - 0.0 - - - - - - -
24/04:00pm 14.3 NE 12 16 1005.2 - 0.0 - - - - - - -
24/03:30pm 15.0 NE 12 15 1005.2 - 0.0 - - - - - - -
24/03:00pm 14.4 NE 11 15 1005.2 - 0.0 - - - - - - -
24/02:30pm 16.4 NNE 12 16 1005.4 - 0.0 - - - - - - -
24/02:00pm 15.2 NNE 13 17 1005.6 - 0.0 - - - - - - -
24/01:30pm 15.1 NNE 16 19 1006.1 - 0.0 - - - - - - -
24/01:00pm 14.7 NNE 16 20 1006.4 - 0.0 - - - - - - -
24/12:30pm 15.6 NNE 15 20 1006.8 - 0.0 - - - - - - -
24/12:00pm 16.0 NE 15 21 1006.8 - 0.0 - - - - - - -
24/11:30am 15.7 NE 16 21 1007.2 - 0.0 - - - - - - -
24/11:00am 15.7 NE 15 20 1007.6 - 0.0 - - - - - - -
24/10:30am 14.9 NNE 15 19 1008.2 - 0.0 - - - - - - -
24/10:00am 14.0 NNE 14 19 1008.7 - 0.0 - - - - - - -
24/09:30am 14.3 NNE 17 22 1008.9 - 0.0 - - - - - - -
24/09:00am 14.2 NE 17 22 1008.7 - 0.0 - - - - - - -
24/08:30am 14.2 NE 16 21 1008.8 - 0.0 - - - - - - -
24/08:00am 13.2 NE 15 20 1009.1 - 0.0 - - - - - - -
24/07:30am 12.9 NE 14 20 1009.3 - 0.0 - - - - - - -
24/07:00am 12.8 ENE 14 20 1009.6 - 0.0 - - - - - - -
24/06:30am 12.6 ENE 18 24 1009.5 - 0.0 - - - - - - -
24/06:00am 12.5 ENE 16 22 1009.4 - 0.0 - - - - - - -
24/05:30am 12.4 ENE 15 21 1009.4 - 0.0 - - - - - - -
24/05:00am 12.2 E 16 22 1009.3 - 0.0 - - - - - - -
24/04:30am 12.3 E 16 21 1009.6 - 0.0 - - - - - - -
24/04:00am 12.3 E 16 22 1009.9 - 0.0 - - - - - - -
24/03:30am 12.3 E 14 18 1010.3 - 0.0 - - - - - - -
24/03:00am 12.2 ENE 14 18 1010.6 - 0.0 - - - - - - -
24/02:30am 12.0 ENE 12 16 1011.1 - 0.0 - - - - - - -
24/02:00am 12.0 ENE 14 19 1011.4 - 0.0 - - - - - - -
24/01:30am 11.9 ENE 16 20 1011.6 - 0.0 - - - - - - -
24/01:00am 11.7 ENE 13 19 1011.7 - 0.0 - - - - - - -
24/12:30am 11.5 E 14 19 1011.7 - 0.0 - - - - - - -
24/12:00am 11.4 ENE 10 14 1012.2 - 0.0 - - - - - - -
 
Date/Time
EST
Temp
°C
Wind Pressure Rain since
9am
mm
Weather Cloud Vis
km
Sea
Height
m
Swell
Dir  Spd
kts
Gust
kts
hPa Trend Height
m
Period
s
Dir
23/11:30pm 10.7 E 10 13 1012.3 - 0.0 - - - - - - -
23/11:00pm 10.5 E 10 12 1012.6 - 0.0 - - - - - - -
23/10:30pm 10.5 E 11 15 1012.7 - 0.0 - - - - - - -
23/10:00pm 10.3 E 10 12 1012.9 - 0.0 - - - - - - -
23/09:30pm 10.3 E 10 14 1013.2 - 0.0 - - - - - - -
23/09:00pm 10.4 E 10 13 1013.3 - 0.0 - - - - - - -
23/08:30pm 10.0 E 9 11 1013.6 - 0.0 - - - - - - -
23/08:00pm 9.7 E 7 9 1013.8 - 0.0 - - - - - - -
23/07:30pm 9.6 ENE 6 7 1013.9 - 0.0 - - - - - - -
23/07:00pm 10.1 ENE 7 8 1013.9 - 0.0 - - - - - - -
23/06:30pm 10.5 ENE 7 8 1013.6 - 0.0 - - - - - - -
23/06:00pm 11.5 ENE 8 10 1013.6 - 0.0 - - - - - - -
23/05:30pm 12.3 NE 8 10 1013.9 - 0.0 - - - - - - -
23/05:00pm 12.8 NE 8 10 1013.9 - 0.0 - - - - - - -
23/04:30pm 13.1 NNE 8 10 1014.0 - 0.0 - - - - - - -
23/04:00pm 13.4 NE 9 11 1013.9 - 0.0 - - - - - - -
23/03:30pm 13.3 NE 9 11 1014.0 - 0.0 - - - - - - -
23/03:00pm 13.8 NE 8 11 1014.3 - 0.0 - - - - - - -
23/02:30pm 13.8 NNE 9 12 1014.7 - 0.0 - - - - - - -
23/02:00pm 13.2 NNE 11 14 1015.0 - 0.0 - - - - - - -
23/01:30pm 14.0 N 12 16 1015.1 - 0.0 - - - - - - -
23/01:00pm 14.1 NNE 12 16 1015.1 - 0.0 - - - - - - -
23/12:30pm 14.6 NNE 11 16 1015.3 - 0.0 - - - - - - -
23/12:00pm 14.9 NE 12 17 1015.5 - 0.0 - - - - - - -
23/11:30am 15.9 ENE 13 17 1015.7 - 0.0 - - - - - - -
23/11:00am 15.5 ENE 13 19 1015.9 - 0.0 - - - - - - -
23/10:30am 16.1 NE 11 15 1016.1 - 0.0 - - - - - - -
23/10:00am 14.9 E 7 11 1016.4 - 0.0 - - - - - - -
23/09:30am 14.1 ESE 3 7 1016.6 - 0.0 - - - - - - -
23/09:00am 11.9 S 4 6 1016.9 - 0.0 - - - - - - -
23/08:30am 10.0 SSW 6 7 1017.1 - 0.0 - - - - - - -
23/08:00am 9.2 S 6 8 1017.1 - 0.0 - - - - - - -
23/07:30am 8.9 S 8 10 1017.1 - 0.0 - - - - - - -
23/07:00am 8.8 S 7 8 1017.1 - 0.0 - - - - - - -
23/06:30am 8.6 S 8 9 1016.8 - 0.0 - - - - - - -
23/06:00am 8.6 S 6 8 1016.6 - 0.0 - - - - - - -
23/05:30am 8.5 S 6 7 1016.4 - 0.0 - - - - - - -
23/05:00am 8.5 S 7 9 1016.1 - 0.0 - - - - - - -
23/04:30am 8.0 SSW 7 8 1016.0 - 0.0 - - - - - - -
23/04:00am 7.1 SSW 7 9 1016.1 - 0.0 - - - - - - -
23/03:30am 6.7 SSW 8 9 1016.1 - 0.0 - - - - - - -
23/03:00am 7.6 SSW 8 9 1016.1 - 0.0 - - - - - - -
23/02:30am 7.5 SSW 8 9 1016.1 - 0.0 - - - - - - -
23/02:00am 7.9 SSW 10 11 1016.4 - 0.0 - - - - - - -
23/01:30am 8.5 SSW 10 12 1016.6 - 0.0 - - - - - - -
23/01:00am 8.8 SSW 11 13 1016.8 - 0.0 - - - - - - -
23/12:30am 8.5 SSW 11 13 1017.0 - 0.0 - - - - - - -
23/12:00am 8.8 SSW 11 14 1016.9 - 0.0 - - - - - - -
 
Date/Time
EST
Temp
°C
Wind Pressure Rain since
9am
mm
Weather Cloud Vis
km
Sea
Height
m
Swell
Dir  Spd
kts
Gust
kts
hPa Trend Height
m
Period
s
Dir
22/11:30pm 9.4 SSW 13 16 1016.9 - 0.0 - - - - - - -
22/11:00pm 9.2 SSW 13 16 1016.8 - 0.0 - - - - - - -
22/10:30pm 9.4 SSW 13 17 1017.0 - 0.0 - - - - - - -
22/10:00pm 9.5 SSW 13 18 1017.1 - 0.0 - - - - - - -
22/09:30pm 9.6 SSW 12 16 1017.2 - 0.0 - - - - - - -
22/09:00pm 9.9 SSW 14 17 1017.4 - 0.0 - - - - - - -
22/08:30pm 10.1 SSW 15 20 1017.4 - 0.0 - - - - - - -
22/08:00pm 10.4 SSW 15 19 1017.5 - 0.0 - - - - - - -
22/07:30pm 10.5 SSW 16 19 1017.3 - 0.0 - - - - - - -
22/07:00pm 10.6 SSW 16 19 1017.0 - 0.0 - - - - - - -
22/06:30pm 11.1 SSW 16 23 1016.8 - 0.0 - - - - - - -
22/06:00pm 11.5 SSW 16 20 1016.6 - 0.0 - - - - - - -
22/05:30pm 12.3 SSW 16 21 1016.2 - 0.0 - - - - - - -
22/05:00pm 12.8 SSW 17 22 1015.9 - 0.0 - - - - - - -
22/04:30pm 13.2 SSW 19 24 1015.4 - 0.0 - - - - - - -
22/04:00pm 14.2 SW 17 22 1015.0 - 0.0 - - - - - - -
22/03:30pm 14.3 SW 18 22 1014.9 - 0.0 - - - - - - -
22/03:00pm 14.5 SSW 17 22 1014.9 - 0.0 - - - - - - -
22/02:30pm 14.7 SSW 17 22 1014.9 - 0.0 - - - - - - -
22/02:00pm 15.3 SW 18 23 1014.9 - 0.0 - - - - - - -
22/01:30pm 14.9 SW 15 19 1015.0 - 0.0 - - - - - - -
22/01:00pm 14.4 SSW 14 19 1015.0 - 0.0 - - - - - - -
22/12:30pm 15.7 SSW 14 18 1015.1 - 0.0 - - - - - - -
22/12:00pm 15.4 SSW 15 20 1015.1 - 0.0 - - - - - - -
22/11:30am 15.2 SSW 15 19 1015.2 - 0.0 - - - - - - -
22/11:00am 14.7 SSW 17 22 1015.3 - 0.0 - - - - - - -
22/10:30am 13.9 SSW 18 22 1015.5 - 0.0 - - - - - - -
22/10:00am 14.1 S 15 20 1015.4 - 0.0 - - - - - - -
22/09:30am 13.2 SSW 18 23 1015.5 - 0.0 - - - - - - -
22/09:00am 12.8 SSW 17 23 1015.4 - 0.0 - - - - - - -
22/08:30am 11.9 SSW 16 23 1015.3 - 0.0 - - - - - - -
22/08:00am 11.0 SSW 16 21 1015.2 - 0.0 - - - - - - -
22/07:30am 10.2 SSW 14 17 1015.1 - 0.0 - - - - - - -
22/07:00am 9.4 SW 12 16 1014.8 - 0.0 - - - - - - -

Other Formats:

Comma delimited format used in spreadsheet applications
http://www.bom.gov.au/fwo/IDT60701/IDT60701.94953.axf

JavaScript Object Notation format (JSON) in row-major order
http://www.bom.gov.au/fwo/IDT60701/IDT60701.94953.json